Time;durP1;ratioP1;P1;durP2;ratioP2;P2;SDS_P1;SDS_P2;PMS_P1;PMS_P2;Temp;Humidity;BMP_temperature;BMP_pressure;BME280_temperature;BME280_humidity;BME280_pressure;Samples;Min_cycle;Max_cycle;Signal;HPM_P1;HPM_P2
2022/05/30 00:01:24;;;;;;;6.63;1.97;;;11.90;99.90;;;;;;4990752;28;20458;-76
2022/05/30 00:03:51;;;;;;;7.83;1.53;;;11.90;99.90;;;;;;4992497;28;20455;-76
2022/05/30 00:06:23;;;;;;;3.53;1.43;;;11.90;99.90;;;;;;4991778;28;20472;-77
2022/05/30 00:08:49;;;;;;;6.10;1.63;;;11.90;99.90;;;;;;4992082;28;20462;-76
2022/05/30 00:11:18;;;;;;;5.20;1.40;;;11.80;99.90;;;;;;4990794;28;20454;-75
2022/05/30 00:13:45;;;;;;;5.70;1.37;;;11.90;99.90;;;;;;4992034;28;20458;-75
2022/05/30 00:16:15;;;;;;;6.20;1.97;;;11.90;99.90;;;;;;4991767;28;20470;-76
2022/05/30 00:18:42;;;;;;;6.87;2.07;;;11.80;99.90;;;;;;4991725;28;20490;-76
2022/05/30 00:21:09;;;;;;;5.10;1.67;;;11.80;99.90;;;;;;4991320;28;20985;-76
2022/05/30 00:23:37;;;;;;;8.33;1.47;;;11.80;99.90;;;;;;4991579;28;20482;-77
2022/05/30 00:26:06;;;;;;;6.40;1.67;;;11.80;99.90;;;;;;4987815;28;20470;-75
2022/05/30 00:28:33;;;;;;;7.33;2.10;;;11.80;99.90;;;;;;4989008;28;20450;-76
2022/05/30 00:31:00;;;;;;;6.13;1.53;;;11.80;99.90;;;;;;4991177;28;20454;-76
2022/05/30 00:33:27;;;;;;;5.30;1.40;;;11.80;99.90;;;;;;4991348;28;20465;-75
2022/05/30 00:35:54;;;;;;;4.33;1.20;;;11.80;99.90;;;;;;4991403;28;20478;-76
2022/05/30 00:38:21;;;;;;;6.37;1.30;;;11.70;99.90;;;;;;4991515;28;20862;-76
2022/05/30 00:40:49;;;;;;;5.63;1.43;;;11.80;99.90;;;;;;4991384;28;20461;-76
2022/05/30 00:43:25;;;;;;;5.63;1.37;;;11.80;99.90;;;;;;4991483;28;21053;-77
2022/05/30 00:45:53;;;;;;;5.10;1.47;;;11.80;99.90;;;;;;4991524;28;21022;-76
2022/05/30 00:48:23;;;;;;;6.93;2.03;;;11.80;99.90;;;;;;4992095;28;20647;-77
2022/05/30 00:50:52;;;;;;;9.53;1.83;;;11.80;99.90;;;;;;4990775;28;20576;-76
2022/05/30 00:53:19;;;;;;;10.30;1.70;;;11.80;99.90;;;;;;4991718;28;20448;-77
2022/05/30 00:55:47;;;;;;;4.93;1.73;;;11.80;99.90;;;;;;4991802;28;20478;-77
2022/05/30 00:58:18;;;;;;;9.37;1.60;;;11.80;99.90;;;;;;4992514;28;20491;-77
2022/05/30 01:00:45;;;;;;;8.47;1.67;;;11.80;99.90;;;;;;4990949;28;20469;-77
2022/05/30 01:08:47;;;;;;;6.63;1.30;;;11.70;99.90;;;;;;4995190;28;20615;-77
2022/05/30 01:11:13;;;;;;;4.53;1.63;;;11.70;99.90;;;;;;4993856;28;20458;-76
2022/05/30 01:13:42;;;;;;;8.90;2.93;;;11.80;99.90;;;;;;4995345;28;20453;-76
2022/05/30 01:16:08;;;;;;;3.60;1.50;;;11.70;99.90;;;;;;4994567;28;20493;-76
2022/05/30 01:18:41;;;;;;;8.43;1.77;;;11.70;99.90;;;;;;4994917;28;20849;-76
2022/05/30 01:21:42;;;;;;;8.20;1.87;;;11.70;99.90;;;;;;4993616;28;20454;-77
2022/05/30 01:24:21;;;;;;;5.40;1.53;;;11.80;99.90;;;;;;4993707;28;20469;-77
2022/05/30 01:27:04;;;;;;;9.93;1.80;;;11.80;99.90;;;;;;4994204;28;21090;-77
2022/05/30 01:29:37;;;;;;;4.97;1.40;;;11.80;99.90;;;;;;4994610;28;20458;-77
2022/05/30 01:32:04;;;;;;;6.20;1.43;;;11.80;99.90;;;;;;4994071;28;20459;-77
2022/05/30 01:34:31;;;;;;;7.53;1.70;;;11.70;99.90;;;;;;4994357;28;20450;-77
2022/05/30 01:36:58;;;;;;;5.43;1.57;;;11.70;99.90;;;;;;4994455;28;20456;-77
2022/05/30 01:39:24;;;;;;;4.53;1.33;;;11.70;99.90;;;;;;4994269;28;21021;-77
2022/05/30 01:41:51;;;;;;;5.93;1.93;;;11.70;99.90;;;;;;4977163;28;20844;-76
2022/05/30 01:46:55;;;;;;;7.60;2.00;;;11.70;99.90;;;;;;5011455;28;20481;-80
2022/05/30 01:49:21;;;;;;;8.00;1.63;;;11.80;99.90;;;;;;5034888;28;20460;-79
2022/05/30 01:51:48;;;;;;;5.10;1.40;;;11.70;99.90;;;;;;5035340;28;20536;-80
2022/05/30 01:54:15;;;;;;;4.60;1.87;;;11.70;99.90;;;;;;5017757;28;20482;-80
2022/05/30 01:56:42;;;;;;;6.07;1.80;;;11.70;99.90;;;;;;5014995;28;20486;-79
2022/05/30 01:59:09;;;;;;;4.93;1.70;;;11.70;99.90;;;;;;5015686;28;20509;-80
2022/05/30 02:01:36;;;;;;;6.47;1.90;;;11.50;99.90;;;;;;5014238;28;20457;-80
2022/05/30 02:04:04;;;;;;;6.97;1.80;;;11.60;99.90;;;;;;5015395;28;20458;-80
2022/05/30 02:06:32;;;;;;;8.80;2.43;;;11.60;99.90;;;;;;5007737;28;20473;-80
2022/05/30 02:08:59;;;;;;;4.10;1.30;;;11.60;99.90;;;;;;5015250;28;20504;-80
2022/05/30 02:11:26;;;;;;;2.83;1.20;;;11.60;99.90;;;;;;5013701;28;20453;-81
2022/05/30 02:13:52;;;;;;;9.13;2.00;;;11.60;99.90;;;;;;5015620;28;20457;-81
2022/05/30 02:19:06;;;;;;;12.93;1.90;;;11.50;99.90;;;;;;5015299;28;20628;-82
2022/05/30 02:21:34;;;;;;;8.60;1.57;;;11.50;99.90;;;;;;5014235;28;20815;-81
2022/05/30 02:24:01;;;;;;;4.97;1.33;;;11.50;99.90;;;;;;5014764;28;20485;-81
2022/05/30 02:26:28;;;;;;;7.37;1.40;;;11.50;99.90;;;;;;5013692;28;20860;-81
2022/05/30 02:28:55;;;;;;;8.80;2.43;;;11.50;99.90;;;;;;5021980;28;20442;-81
2022/05/30 02:31:22;;;;;;;6.43;2.50;;;11.50;99.90;;;;;;5019557;28;20478;-81
2022/05/30 02:36:40;;;;;;;7.53;1.73;;;11.40;99.90;;;;;;5016204;28;20468;-80
2022/05/30 02:39:08;;;;;;;8.13;1.80;;;11.40;99.90;;;;;;5015096;28;20852;-79
2022/05/30 02:41:35;;;;;;;5.07;1.63;;;11.40;99.90;;;;;;5014140;28;20460;-80
2022/05/30 02:44:02;;;;;;;6.83;2.30;;;11.40;99.90;;;;;;5014599;28;20457;-80
2022/05/30 02:46:29;;;;;;;7.20;2.33;;;11.30;99.90;;;;;;5012824;28;20486;-79
2022/05/30 02:48:56;;;;;;;7.57;1.63;;;11.30;99.90;;;;;;5014450;28;20441;-80
2022/05/30 02:51:23;;;;;;;6.17;1.77;;;11.30;99.90;;;;;;5013040;28;20458;-80
2022/05/30 02:53:51;;;;;;;6.33;2.27;;;11.30;99.90;;;;;;5014090;28;20839;-80
2022/05/30 02:56:18;;;;;;;5.90;2.23;;;11.40;99.90;;;;;;5013457;28;20481;-80
2022/05/30 02:58:46;;;;;;;5.73;2.10;;;11.40;99.90;;;;;;5013496;28;20513;-81
2022/05/30 03:01:13;;;;;;;9.90;2.27;;;11.30;99.90;;;;;;5012784;28;20461;-80
2022/05/30 03:03:41;;;;;;;9.97;2.40;;;11.30;99.90;;;;;;5014328;28;20460;-81
2022/05/30 03:06:08;;;;;;;9.33;2.30;;;11.30;99.90;;;;;;5013727;28;20470;-80
2022/05/30 03:08:35;;;;;;;9.73;2.60;;;11.30;99.90;;;;;;5014189;28;20468;-81
2022/05/30 03:11:04;;;;;;;7.00;1.90;;;11.30;99.90;;;;;;5013338;28;21029;-82
2022/05/30 03:13:30;;;;;;;6.45;2.00;;;11.30;99.90;;;;;;5010246;28;20443;-79
2022/05/30 03:15:58;;;;;;;7.10;1.83;;;11.30;99.90;;;;;;5013568;28;20273;-79
2022/05/30 03:18:25;;;;;;;6.70;1.70;;;11.40;99.90;;;;;;5014000;28;20825;-80
2022/05/30 03:20:52;;;;;;;7.40;2.10;;;11.50;99.90;;;;;;5020720;28;20484;-80
2022/05/30 03:23:19;;;;;;;7.00;2.17;;;11.40;99.90;;;;;;5022672;28;20511;-81
2022/05/30 03:25:46;;;;;;;5.47;1.67;;;11.40;99.90;;;;;;5014894;28;20485;-80
2022/05/30 03:28:14;;;;;;;1.80;0.90;;;11.30;99.90;;;;;;5012724;28;20455;-80
2022/05/30 03:30:41;;;;;;;6.40;1.97;;;12.80;99.90;;;;;;5011338;28;20848;-80
2022/05/30 03:33:09;;;;;;;8.13;1.83;;;13.90;99.90;;;;;;5012553;28;20984;-78
2022/05/30 03:35:37;;;;;;;9.40;1.80;;;14.40;99.90;;;;;;5012288;28;20481;-81
2022/05/30 03:38:04;;;;;;;8.27;2.10;;;14.00;99.90;;;;;;5010378;28;20450;-80
2022/05/30 03:40:31;;;;;;;5.67;1.80;;;13.50;99.90;;;;;;5008378;28;20490;-78
2022/05/30 03:42:58;;;;;;;7.10;1.80;;;13.20;99.90;;;;;;5011704;28;20459;-78
2022/05/30 03:45:26;;;;;;;4.77;1.63;;;12.90;99.90;;;;;;5020500;28;20478;-78
2022/05/30 03:47:53;;;;;;;8.03;2.70;;;12.60;99.90;;;;;;5014833;28;20491;-79
2022/05/30 03:50:23;;;;;;;9.10;1.73;;;12.30;99.90;;;;;;5018595;28;20460;-80
2022/05/30 03:52:50;;;;;;;4.53;1.60;;;12.10;99.90;;;;;;5016662;28;20812;-78
2022/05/30 03:55:20;;;;;;;4.80;1.83;;;12.00;99.90;;;;;;5014376;28;20570;-79
2022/05/30 03:57:47;;;;;;;7.37;1.90;;;11.90;99.90;;;;;;5013990;28;20838;-79
2022/05/30 04:00:19;;;;;;;9.07;1.80;;;11.80;99.90;;;;;;5014959;28;20486;-78
2022/05/30 04:02:48;;;;;;;5.27;1.77;;;11.80;99.90;;;;;;5014609;28;20537;-78
2022/05/30 04:05:16;;;;;;;6.23;2.40;;;11.80;99.90;;;;;;5014712;28;21057;-78
2022/05/30 04:07:43;;;;;;;5.77;1.80;;;11.70;99.90;;;;;;5014354;28;20494;-77
2022/05/30 04:10:10;;;;;;;4.37;1.80;;;11.70;99.90;;;;;;5014871;28;20450;-79
2022/05/30 04:12:38;;;;;;;9.77;2.70;;;11.60;99.90;;;;;;5014306;28;20546;-79
2022/05/30 04:15:07;;;;;;;6.03;2.00;;;11.60;99.90;;;;;;5015373;28;20901;-78
2022/05/30 04:17:35;;;;;;;4.00;1.60;;;11.60;99.90;;;;;;5015555;28;20978;-77
2022/05/30 04:20:05;;;;;;;9.60;2.50;;;11.60;99.90;;;;;;5016720;28;20479;-79
2022/05/30 04:22:32;;;;;;;8.33;1.87;;;11.70;99.90;;;;;;5015343;28;20465;-79
2022/05/30 04:24:59;;;;;;;5.90;1.90;;;11.70;99.90;;;;;;5015620;28;20489;-78
2022/05/30 04:27:26;;;;;;;6.80;1.97;;;11.80;99.90;;;;;;5014915;28;20468;-79
2022/05/30 04:29:53;;;;;;;5.33;2.20;;;11.80;99.90;;;;;;5014965;28;20550;-79
2022/05/30 04:32:19;;;;;;;8.03;2.00;;;11.80;99.90;;;;;;5014579;28;20465;-78
2022/05/30 04:34:47;;;;;;;7.73;1.90;;;11.90;99.90;;;;;;5014904;28;20542;-78
2022/05/30 04:37:15;;;;;;;8.40;1.90;;;11.90;99.90;;;;;;5013944;28;20458;-79
2022/05/30 04:39:42;;;;;;;6.37;1.90;;;11.90;99.90;;;;;;5015349;28;20477;-78
2022/05/30 04:42:09;;;;;;;9.50;2.20;;;11.90;99.90;;;;;;5018006;28;20457;-79
2022/05/30 04:44:36;;;;;;;5.17;1.67;;;11.80;99.90;;;;;;5019826;28;21014;-79
2022/05/30 04:47:05;;;;;;;6.97;1.70;;;11.90;99.90;;;;;;5019736;28;20485;-80
2022/05/30 04:49:32;;;;;;;9.37;2.83;;;11.90;99.90;;;;;;5017809;28;20454;-79
2022/05/30 04:51:59;;;;;;;5.07;1.77;;;11.70;99.90;;;;;;5000983;28;20886;-78
2022/05/30 04:54:27;;;;;;;6.33;2.33;;;11.80;99.90;;;;;;5011913;28;20560;-79
2022/05/30 04:56:54;;;;;;;8.57;2.57;;;11.80;99.90;;;;;;5015077;28;20449;-79
2022/05/30 04:59:21;;;;;;;6.17;2.20;;;11.90;99.90;;;;;;5015454;28;20862;-79
2022/05/30 05:01:48;;;;;;;7.03;2.00;;;11.90;99.90;;;;;;5014287;28;20892;-79
2022/05/30 05:04:14;;;;;;;10.10;2.17;;;12.00;99.90;;;;;;5016470;28;20987;-79
2022/05/30 05:06:44;;;;;;;9.00;2.10;;;12.00;99.90;;;;;;5016426;28;20478;-79
2022/05/30 05:09:25;;;;;;;5.43;1.73;;;12.00;99.90;;;;;;5014297;28;20471;-79
2022/05/30 05:11:53;;;;;;;5.70;1.73;;;12.10;99.90;;;;;;5015469;28;20461;-80
2022/05/30 05:14:20;;;;;;;5.20;1.77;;;12.30;99.90;;;;;;5016659;28;20462;-79
2022/05/30 05:16:47;;;;;;;8.23;1.93;;;12.30;99.90;;;;;;5015236;28;20504;-80
2022/05/30 05:19:14;;;;;;;6.73;2.37;;;12.40;99.90;;;;;;5015684;28;20489;-80
2022/05/30 05:21:45;;;;;;;7.97;3.10;;;12.50;99.90;;;;;;5013871;28;20456;-80
2022/05/30 05:24:13;;;;;;;7.70;2.20;;;12.50;99.90;;;;;;5007005;28;20564;-79
2022/05/30 05:26:44;;;;;;;8.30;1.90;;;12.50;99.90;;;;;;5007189;28;20471;-79
2022/05/30 05:29:12;;;;;;;7.33;2.17;;;12.60;99.90;;;;;;5007008;28;20472;-79
2022/05/30 05:31:39;;;;;;;10.37;2.20;;;12.50;99.90;;;;;;5008269;28;20459;-79
2022/05/30 05:34:08;;;;;;;6.77;1.70;;;12.50;99.90;;;;;;5013056;28;20465;-79
2022/05/30 05:36:36;;;;;;;8.43;2.00;;;12.70;99.90;;;;;;5012915;28;20490;-79
2022/05/30 05:39:03;;;;;;;6.47;1.83;;;12.60;99.90;;;;;;5006698;28;20461;-80
2022/05/30 05:41:34;;;;;;;8.60;2.23;;;12.70;99.90;;;;;;5010955;28;20476;-80
2022/05/30 05:44:01;;;;;;;7.13;2.07;;;12.80;99.90;;;;;;5003372;28;20527;-80
2022/05/30 05:46:31;;;;;;;4.53;1.60;;;12.80;99.90;;;;;;5008506;28;20574;-79
2022/05/30 05:48:59;;;;;;;10.57;2.67;;;12.90;99.90;;;;;;4999034;28;20464;-80
2022/05/30 05:51:27;;;;;;;8.47;1.83;;;12.80;99.90;;;;;;5007391;28;20492;-79
2022/05/30 05:53:54;;;;;;;11.20;1.93;;;13.00;99.90;;;;;;5014026;28;20537;-80
2022/05/30 05:56:23;;;;;;;6.37;1.47;;;13.00;99.90;;;;;;5013826;28;20476;-79
2022/05/30 05:58:50;;;;;;;9.97;2.00;;;13.00;99.90;;;;;;5009688;28;20850;-80
2022/05/30 06:01:19;;;;;;;6.50;2.23;;;13.10;99.90;;;;;;5003271;28;20539;-80
2022/05/30 06:03:47;;;;;;;6.67;1.87;;;13.30;99.90;;;;;;5014209;28;20460;-80
2022/05/30 06:06:14;;;;;;;10.03;2.90;;;13.30;99.90;;;;;;5014523;28;20482;-80
2022/05/30 06:08:41;;;;;;;10.23;2.27;;;13.40;99.90;;;;;;5020753;28;20502;-80
2022/05/30 06:11:11;;;;;;;6.53;2.00;;;13.30;99.90;;;;;;5017479;28;20449;-79
2022/05/30 06:13:40;;;;;;;13.33;2.57;;;13.30;99.90;;;;;;5012446;28;20467;-80
2022/05/30 06:16:08;;;;;;;7.97;2.40;;;13.20;99.90;;;;;;5010032;28;20866;-79
2022/05/30 06:18:36;;;;;;;8.57;2.00;;;13.20;99.90;;;;;;5013522;28;20482;-80
2022/05/30 06:21:05;;;;;;;11.87;2.80;;;12.90;99.90;;;;;;5011516;28;20599;-79
2022/05/30 06:23:32;;;;;;;11.93;2.90;;;13.10;99.90;;;;;;5004387;28;20455;-80
2022/05/30 06:26:01;;;;;;;9.13;2.83;;;13.10;99.90;;;;;;5004443;28;20489;-79
2022/05/30 06:28:29;;;;;;;6.50;1.80;;;13.10;99.90;;;;;;5015291;28;20461;-80
2022/05/30 06:30:55;;;;;;;6.20;1.60;;;13.30;99.90;;;;;;5011445;28;20900;-79
2022/05/30 06:33:22;;;;;;;6.10;1.80;;;13.40;99.90;;;;;;5011797;28;20465;-79
2022/05/30 06:35:49;;;;;;;4.90;1.87;;;13.40;99.90;;;;;;5010479;28;20928;-78
2022/05/30 06:38:18;;;;;;;8.30;2.17;;;13.50;99.90;;;;;;5010309;28;20456;-78
2022/05/30 06:40:44;;;;;;;9.50;2.10;;;13.60;99.90;;;;;;5006189;28;20508;-79
2022/05/30 06:43:11;;;;;;;7.23;2.57;;;13.80;99.90;;;;;;5005268;28;20463;-79
2022/05/30 06:45:38;;;;;;;8.53;2.30;;;13.80;99.90;;;;;;5011731;28;20507;-79
2022/05/30 06:48:06;;;;;;;7.13;1.93;;;13.70;99.90;;;;;;5009900;28;20453;-80
2022/05/30 06:50:32;;;;;;;6.37;2.20;;;13.80;99.90;;;;;;5011065;28;20453;-79
2022/05/30 06:52:59;;;;;;;6.80;2.40;;;13.90;99.90;;;;;;5006767;28;20465;-80
2022/05/30 06:55:27;;;;;;;8.70;2.00;;;13.90;99.90;;;;;;5012422;28;20516;-79
2022/05/30 07:00:38;;;;;;;8.40;4.23;;;13.90;99.90;;;;;;5003559;28;20483;-80
2022/05/30 07:03:05;;;;;;;5.97;1.83;;;13.60;99.90;;;;;;5011490;28;20472;-80
2022/05/30 07:05:34;;;;;;;6.33;1.37;;;13.60;99.90;;;;;;5012698;28;21002;-80
2022/05/30 07:08:00;;;;;;;7.00;2.07;;;13.70;99.90;;;;;;5015097;28;20457;-80
2022/05/30 07:10:30;;;;;;;9.30;2.33;;;13.70;99.90;;;;;;5010356;28;20518;-80
2022/05/30 07:12:58;;;;;;;8.30;2.00;;;13.80;99.90;;;;;;5010810;28;20524;-81
2022/05/30 07:15:25;;;;;;;4.47;1.67;;;13.90;99.90;;;;;;5010527;28;20543;-80
2022/05/30 07:17:52;;;;;;;9.00;2.27;;;13.90;99.90;;;;;;5012899;28;20508;-80
2022/05/30 07:20:19;;;;;;;6.67;2.00;;;14.00;99.90;;;;;;5012335;28;20487;-81
2022/05/30 07:22:46;;;;;;;7.00;1.80;;;14.00;99.90;;;;;;5012640;28;20457;-80
2022/05/30 07:25:13;;;;;;;8.80;3.30;;;14.20;99.90;;;;;;5013072;28;20549;-80
2022/05/30 07:27:41;;;;;;;10.23;2.40;;;14.50;99.90;;;;;;5008827;28;20490;-80
2022/05/30 07:30:11;;;;;;;7.87;1.73;;;14.70;99.90;;;;;;5012727;28;20907;-79
2022/05/30 07:32:38;;;;;;;8.73;1.90;;;15.00;99.90;;;;;;5014030;28;20453;-80
2022/05/30 07:35:06;;;;;;;11.97;2.37;;;15.20;99.90;;;;;;5012820;28;20477;-79
2022/05/30 07:37:33;;;;;;;9.13;1.80;;;15.40;99.90;;;;;;5012166;28;20539;-80
2022/05/30 07:40:00;;;;;;;7.97;2.43;;;15.70;99.90;;;;;;5011803;28;20597;-80
2022/05/30 07:42:26;;;;;;;11.97;3.33;;;15.40;99.90;;;;;;5012395;28;20540;-80
2022/05/30 07:44:55;;;;;;;5.43;1.90;;;15.70;99.90;;;;;;5013429;28;20477;-81
2022/05/30 07:47:22;;;;;;;7.30;2.37;;;15.70;99.90;;;;;;5006529;28;20461;-80
2022/05/30 07:49:49;;;;;;;3.77;1.47;;;15.80;99.90;;;;;;5011887;28;20463;-79
2022/05/30 07:52:17;;;;;;;6.97;2.20;;;16.00;99.90;;;;;;5004353;28;20461;-80
2022/05/30 07:54:44;;;;;;;6.70;1.93;;;16.20;99.90;;;;;;5011641;28;20465;-80
2022/05/30 07:57:11;;;;;;;7.40;2.13;;;16.20;99.90;;;;;;5016960;28;20468;-81
2022/05/30 07:59:39;;;;;;;6.17;1.93;;;16.10;99.90;;;;;;5004162;28;20526;-81
2022/05/30 08:02:08;;;;;;;7.63;1.87;;;16.00;99.90;;;;;;5013439;28;20488;-80
2022/05/30 08:04:36;;;;;;;9.20;2.60;;;16.10;99.90;;;;;;5012330;28;20463;-80
2022/05/30 08:07:06;;;;;;;5.90;1.93;;;15.90;99.90;;;;;;5011985;28;20458;-78
2022/05/30 08:09:32;;;;;;;6.97;1.70;;;16.00;99.90;;;;;;5007095;28;20996;-80
2022/05/30 08:11:59;;;;;;;5.77;1.87;;;16.10;99.90;;;;;;5012276;28;20837;-80
2022/05/30 08:14:26;;;;;;;8.87;2.47;;;16.10;99.90;;;;;;5005949;28;20959;-79
2022/05/30 08:16:53;;;;;;;4.70;1.83;;;15.90;99.90;;;;;;5007641;28;20829;-80
2022/05/30 08:19:22;;;;;;;4.10;1.80;;;15.80;99.90;;;;;;5011198;28;20451;-81
2022/05/30 08:21:49;;;;;;;4.63;1.80;;;15.60;99.90;;;;;;5015550;28;20934;-79
2022/05/30 08:24:16;;;;;;;10.07;2.20;;;15.90;99.90;;;;;;5026399;28;20553;-80
2022/05/30 08:26:43;;;;;;;9.70;2.43;;;15.70;99.90;;;;;;5022110;28;20484;-81
2022/05/30 08:29:09;;;;;;;5.27;2.07;;;15.80;99.90;;;;;;5017404;28;21065;-81
2022/05/30 08:31:36;;;;;;;4.23;1.80;;;15.80;99.90;;;;;;5011519;28;20808;-81
2022/05/30 08:34:03;;;;;;;3.50;1.10;;;15.70;99.90;;;;;;5005687;28;20460;-81
2022/05/30 08:36:31;;;;;;;4.10;1.53;;;16.90;99.90;;;;;;5009074;28;20552;-82
2022/05/30 08:41:48;;;;;;;7.37;1.77;;;17.50;99.90;;;;;;5011944;28;20564;-82
2022/05/30 08:44:16;;;;;;;8.80;2.80;;;17.40;99.90;;;;;;5016412;28;20454;-80
2022/05/30 08:46:49;;;;;;;4.73;1.70;;;17.50;99.90;;;;;;5015194;28;20994;-80
2022/05/30 08:49:22;;;;;;;7.17;1.73;;;17.40;99.90;;;;;;5017184;28;20495;-80
2022/05/30 08:52:21;;;;;;;4.67;1.60;;;17.30;99.90;;;;;;5016078;28;20453;-81
2022/05/30 08:55:02;;;;;;;4.33;1.60;;;17.30;99.90;;;;;;4986549;28;20501;-79
2022/05/30 08:57:40;;;;;;;6.80;1.37;;;17.20;99.90;;;;;;5006795;28;20478;-81
2022/05/30 09:00:17;;;;;;;4.90;1.70;;;16.80;99.90;;;;;;5003375;28;20468;-80
2022/05/30 09:02:51;;;;;;;4.23;1.53;;;16.60;99.90;;;;;;5009318;28;20469;-79
2022/05/30 09:05:24;;;;;;;5.50;1.50;;;16.10;99.90;;;;;;5005445;28;20555;-81
2022/05/30 09:07:57;;;;;;;9.43;2.10;;;16.10;99.90;;;;;;5012448;28;20469;-79
2022/05/30 09:10:30;;;;;;;4.67;1.40;;;16.10;99.90;;;;;;5004661;28;20457;-81
2022/05/30 09:13:05;;;;;;;4.83;1.50;;;16.10;99.90;;;;;;5007965;28;20458;-79
2022/05/30 09:15:36;;;;;;;5.83;2.10;;;15.90;99.90;;;;;;5012029;28;20506;-80
2022/05/30 09:18:09;;;;;;;3.83;1.43;;;15.90;99.90;;;;;;5001396;28;20527;-80
2022/05/30 09:20:41;;;;;;;3.70;1.77;;;15.70;99.90;;;;;;5006353;28;20482;-81
2022/05/30 09:23:11;;;;;;;4.13;1.40;;;16.00;99.90;;;;;;5001040;28;20469;-81
2022/05/30 09:26:00;;;;;;;3.30;1.50;;;16.30;99.90;;;;;;5014652;28;20498;-82
2022/05/30 09:28:29;;;;;;;7.40;1.60;;;16.50;99.90;;;;;;5001716;28;20463;-80
2022/05/30 09:31:10;;;;;;;6.47;1.50;;;16.70;99.90;;;;;;5015376;28;20909;-79
2022/05/30 09:33:42;;;;;;;3.37;1.50;;;17.00;99.90;;;;;;5016521;28;20453;-80
2022/05/30 09:36:17;;;;;;;6.07;1.97;;;17.00;99.90;;;;;;5015498;28;20487;-80
2022/05/30 09:38:53;;;;;;;4.40;1.40;;;16.70;99.90;;;;;;5013736;28;20457;-80
2022/05/30 09:41:23;;;;;;;3.43;1.37;;;17.20;99.90;;;;;;5015770;28;20500;-80
2022/05/30 09:43:54;;;;;;;3.13;1.10;;;17.10;99.90;;;;;;5015834;28;20535;-81
2022/05/30 09:46:26;;;;;;;6.50;1.40;;;17.10;99.90;;;;;;5016361;28;20487;-80
2022/05/30 09:49:06;;;;;;;8.53;1.63;;;17.00;99.90;;;;;;5016178;28;20457;-79
2022/05/30 09:51:38;;;;;;;3.37;1.40;;;16.70;99.90;;;;;;5012248;28;20453;-81
2022/05/30 09:54:08;;;;;;;9.10;2.10;;;16.50;99.90;;;;;;5014391;28;20452;-81
2022/05/30 09:56:40;;;;;;;3.83;1.50;;;16.40;99.90;;;;;;5009159;28;20487;-81
2022/05/30 09:59:13;;;;;;;3.20;1.40;;;16.50;99.90;;;;;;5015141;28;20458;-79
2022/05/30 10:01:41;;;;;;;4.93;1.73;;;16.40;99.90;;;;;;5009850;28;20487;-80
2022/05/30 10:04:17;;;;;;;4.43;1.60;;;16.10;99.90;;;;;;5007623;28;20495;-80
2022/05/30 10:07:05;;;;;;;3.43;1.67;;;16.00;99.90;;;;;;5011112;28;20481;-80
2022/05/30 10:09:35;;;;;;;5.27;1.40;;;16.20;99.90;;;;;;5013169;28;20469;-81
2022/05/30 10:12:02;;;;;;;4.10;1.50;;;16.20;99.90;;;;;;5014038;28;20453;-80
2022/05/30 10:14:34;;;;;;;3.87;1.30;;;16.40;99.90;;;;;;5015928;28;20454;-79
2022/05/30 10:17:12;;;;;;;6.23;1.50;;;16.50;99.90;;;;;;5006214;28;20998;-78
2022/05/30 10:19:42;;;;;;;4.77;2.00;;;16.60;99.90;;;;;;5006765;28;20489;-81
2022/05/30 10:28:39;;;;;;;3.80;1.53;;;17.40;99.90;;;;;;5012653;28;20450;-80
2022/05/30 10:31:23;;;;;;;4.90;2.23;;;18.00;99.90;;;;;;5010313;28;20829;-81
2022/05/30 10:34:42;;;;;;;6.67;2.73;;;18.00;99.90;;;;;;5011682;28;20446;-82
2022/05/30 10:37:55;;;;;;;6.57;1.80;;;18.90;99.90;;;;;;4953872;29;21331;-81
2022/05/30 10:40:35;;;;;;;4.43;1.40;;;19.70;99.90;;;;;;4936443;29;20454;-81
2022/05/30 10:43:09;;;;;;;3.43;1.20;;;19.60;99.90;;;;;;4998819;28;20444;-82
2022/05/30 10:45:45;;;;;;;5.13;1.43;;;19.50;99.90;;;;;;5018621;28;20498;-81
2022/05/30 10:48:22;;;;;;;3.63;1.10;;;19.60;99.90;;;;;;5012903;28;20448;-81
2022/05/30 10:50:54;;;;;;;2.90;1.20;;;19.70;99.90;;;;;;5012768;28;20448;-82
2022/05/30 10:53:39;;;;;;;2.30;1.00;;;20.10;99.90;;;;;;5010240;28;20834;-82
2022/05/30 10:56:16;;;;;;;4.27;1.20;;;20.30;99.90;;;;;;5010345;28;20488;-82
2022/05/30 10:58:50;;;;;;;4.00;2.33;;;20.20;99.90;;;;;;5006290;28;20488;-81
2022/05/30 11:01:30;;;;;;;3.07;0.90;;;19.70;99.90;;;;;;5010361;28;20490;-81
2022/05/30 11:04:20;;;;;;;3.80;1.53;;;19.20;99.90;;;;;;5010756;28;21008;-81
2022/05/30 11:06:50;;;;;;;4.50;1.20;;;20.30;99.90;;;;;;4994546;28;20501;-81
2022/05/30 11:09:24;;;;;;;2.93;1.30;;;21.60;99.90;;;;;;5007040;28;21030;-82
2022/05/30 11:11:58;;;;;;;3.23;1.23;;;22.80;99.90;;;;;;5009913;28;20950;-82
2022/05/30 11:14:33;;;;;;;3.07;1.60;;;23.20;99.90;;;;;;5012509;28;20855;-80
2022/05/30 11:17:10;;;;;;;6.67;1.40;;;23.90;99.90;;;;;;5010815;28;20449;-80
2022/05/30 11:19:55;;;;;;;3.90;1.50;;;24.30;99.90;;;;;;5008309;28;20469;-80
2022/05/30 11:22:36;;;;;;;4.27;1.20;;;23.00;96.60;;;;;;5009974;28;20496;-80
2022/05/30 11:25:04;;;;;;;7.10;1.50;;;22.40;97.50;;;;;;5008195;28;20474;-81
2022/05/30 11:27:40;;;;;;;4.77;1.57;;;21.00;97.70;;;;;;5012907;28;20465;-79
2022/05/30 11:30:18;;;;;;;2.87;1.43;;;20.20;97.20;;;;;;5000160;28;20469;-79
2022/05/30 11:33:32;;;;;;;5.23;1.20;;;19.50;99.90;;;;;;5017475;28;20957;-81
2022/05/30 11:36:17;;;;;;;4.00;1.60;;;18.90;99.90;;;;;;5002077;28;20820;-80
2022/05/30 11:39:00;;;;;;;3.90;1.53;;;18.20;99.90;;;;;;5011079;28;20550;-78
2022/05/30 11:41:42;;;;;;;4.60;1.33;;;17.60;99.90;;;;;;5015462;28;20574;-80
2022/05/30 11:44:23;;;;;;;3.23;1.70;;;17.10;99.90;;;;;;5015460;28;20541;-81
2022/05/30 11:46:59;;;;;;;4.70;1.90;;;16.60;99.90;;;;;;5012596;28;20508;-82
2022/05/30 11:49:33;;;;;;;3.70;1.70;;;16.70;99.90;;;;;;5010449;28;20449;-80
2022/05/30 11:52:13;;;;;;;3.17;1.20;;;16.60;99.90;;;;;;5007638;28;20801;-79
2022/05/30 11:55:06;;;;;;;4.80;1.60;;;16.40;99.90;;;;;;5007713;28;20476;-79
2022/05/30 11:57:38;;;;;;;6.77;1.30;;;16.40;99.90;;;;;;5004936;28;20463;-82
2022/05/30 12:00:36;;;;;;;3.50;1.37;;;16.40;99.90;;;;;;5013469;28;20479;-80
2022/05/30 12:03:35;;;;;;;4.60;1.60;;;16.30;99.90;;;;;;5008081;28;20484;-82
2022/05/30 12:06:29;;;;;;;4.80;1.50;;;16.40;99.90;;;;;;4992583;28;20496;-80
2022/05/30 12:09:27;;;;;;;4.67;1.20;;;16.60;99.90;;;;;;5006674;28;20457;-80
2022/05/30 12:12:28;;;;;;;3.10;1.20;;;16.80;99.90;;;;;;5010231;28;20461;-79
2022/05/30 12:15:32;;;;;;;2.83;0.90;;;17.10;99.90;;;;;;4994152;28;21008;-80
2022/05/30 12:24:31;;;;;;;4.20;1.37;;;19.00;99.90;;;;;;5011162;28;20576;-81
2022/05/30 12:27:15;;;;;;;3.23;1.37;;;19.30;99.90;;;;;;5008334;28;20555;-82
2022/05/30 12:29:50;;;;;;;4.70;1.60;;;19.70;99.90;;;;;;4999469;28;20538;-80
2022/05/30 12:32:41;;;;;;;4.73;1.40;;;20.40;99.90;;;;;;5013142;28;20456;-79
2022/05/30 12:35:21;;;;;;;4.70;1.30;;;20.80;99.90;;;;;;5010960;28;20504;-80
2022/05/30 12:37:51;;;;;;;3.27;1.13;;;20.60;99.90;;;;;;5013004;28;20951;-80
2022/05/30 12:40:34;;;;;;;5.03;1.90;;;20.80;99.90;;;;;;5011265;28;20460;-83
2022/05/30 12:43:13;;;;;;;3.57;1.20;;;20.50;99.90;;;;;;5006819;28;20497;-82
2022/05/30 12:45:44;;;;;;;3.90;1.40;;;20.70;99.90;;;;;;5006737;28;20500;-80
2022/05/30 12:48:17;;;;;;;3.70;1.70;;;20.50;99.90;;;;;;5010210;28;20515;-83
2022/05/30 12:51:00;;;;;;;5.97;1.23;;;21.10;99.90;;;;;;5013279;28;20445;-79
2022/05/30 12:54:06;;;;;;;4.27;1.47;;;20.90;99.90;;;;;;5011777;28;20458;-79
2022/05/30 12:57:04;;;;;;;3.50;1.67;;;20.80;99.90;;;;;;5004858;28;20478;-77
2022/05/30 12:59:33;;;;;;;3.37;1.33;;;21.00;99.90;;;;;;5009536;28;20465;-77
2022/05/30 13:02:03;;;;;;;5.53;1.60;;;21.40;99.90;;;;;;5013159;28;21012;-80
2022/05/30 13:04:35;;;;;;;2.80;1.30;;;20.90;99.90;;;;;;5016761;28;20477;-80
2022/05/30 13:07:16;;;;;;;4.50;1.30;;;21.30;99.90;;;;;;5017568;28;20441;-79
2022/05/30 13:09:43;;;;;;;3.40;1.37;;;22.30;99.90;;;;;;5017098;28;20450;-78
2022/05/30 13:12:56;;;;;;;2.60;1.30;;;23.10;97.40;;;;;;5016389;28;20462;-80
2022/05/30 13:15:37;;;;;;;5.17;2.03;;;22.80;99.30;;;;;;5016364;28;20547;-79
2022/05/30 13:18:11;;;;;;;4.10;1.77;;;22.30;93.10;;;;;;5016997;28;20449;-79
2022/05/30 13:20:44;;;;;;;3.03;1.60;;;22.30;95.70;;;;;;5017879;28;20459;-80
2022/05/30 13:23:11;;;;;;;5.20;1.43;;;22.00;91.90;;;;;;5017361;28;20875;-82
2022/05/30 13:25:40;;;;;;;3.20;1.37;;;22.50;94.50;;;;;;5013654;28;20581;-80
2022/05/30 13:28:11;;;;;;;5.93;1.40;;;22.00;92.80;;;;;;5008133;28;20997;-79
2022/05/30 13:30:39;;;;;;;4.00;1.87;;;22.00;92.90;;;;;;5011374;28;21005;-81
2022/05/30 13:33:15;;;;;;;3.47;1.47;;;22.00;93.70;;;;;;5007228;28;20850;-80
2022/05/30 13:35:42;;;;;;;3.90;1.50;;;21.30;93.60;;;;;;5012635;28;20976;-78
2022/05/30 13:38:14;;;;;;;2.73;1.23;;;20.80;93.40;;;;;;5013349;28;20473;-80
2022/05/30 13:40:41;;;;;;;3.30;1.40;;;20.70;92.10;;;;;;5007575;28;20451;-83